Time;durP1;ratioP1;P1;durP2;ratioP2;P2;SDS_P1;SDS_P2;PMS_P1;PMS_P2;Temp;Humidity;BMP_temperature;BMP_pressure;BME280_temperature;BME280_humidity;BME280_pressure;Samples;Min_cycle;Max_cycle;Signal;HPM_P1;HPM_P2
2023/04/02 00:02:25;;;;;;;2.55;2.10;;;;;;;;;;4968567;28;20050;-69
2023/04/02 00:05:49;;;;;;;2.70;2.00;;;;;;;;;;4974345;28;20180;-69
2023/04/02 00:08:39;;;;;;;2.30;1.80;;;;;;;;;;4955674;28;20055;-69
2023/04/02 00:11:07;;;;;;;2.55;2.15;;;;;;;;;;4955732;28;20047;-69
2023/04/02 00:13:36;;;;;;;2.55;2.15;;;;;;;;;;4954897;28;20335;-69
2023/04/02 00:16:05;;;;;;;2.50;2.10;;;;;;;;;;4955252;28;20043;-68
2023/04/02 00:18:34;;;;;;;3.17;2.40;;;;;;;;;;4954685;28;20048;-69
2023/04/02 00:21:08;;;;;;;3.33;2.10;;;;;;;;;;4955309;28;20090;-68
2023/04/02 00:23:40;;;;;;;3.58;2.42;;;;;;;;;;4954874;28;20404;-68
2023/04/02 00:26:21;;;;;;;4.05;2.38;;;;;;;;;;4955809;28;20047;-68
2023/04/02 00:28:49;;;;;;;2.80;2.20;;;;;;;;;;4954795;28;20324;-69
2023/04/02 00:31:18;;;;;;;6.05;2.10;;;;;;;;;;4954980;28;20047;-69
2023/04/02 00:33:46;;;;;;;2.33;1.90;;;;;;;;;;4954586;28;20086;-69
2023/04/02 00:36:13;;;;;;;2.47;2.28;;;;;;;;;;4971984;28;20054;-68
2023/04/02 00:38:42;;;;;;;2.15;1.95;;;;;;;;;;4974027;28;20079;-68
2023/04/02 00:41:14;;;;;;;2.60;1.92;;;;;;;;;;4973994;28;20054;-69
2023/04/02 00:43:45;;;;;;;2.53;2.20;;;;;;;;;;4974280;28;20100;-69
2023/04/02 00:46:15;;;;;;;2.55;1.75;;;;;;;;;;4973958;28;20047;-68
2023/04/02 00:48:49;;;;;;;4.93;2.00;;;;;;;;;;4973498;28;20073;-68
2023/04/02 00:51:20;;;;;;;2.78;1.95;;;;;;;;;;4974129;28;20488;-69
2023/04/02 00:53:52;;;;;;;3.80;1.95;;;;;;;;;;4974111;28;20042;-69
2023/04/02 00:56:24;;;;;;;4.22;2.30;;;;;;;;;;4974340;28;20093;-68
2023/04/02 00:58:53;;;;;;;2.65;2.03;;;;;;;;;;4973891;28;20100;-69
2023/04/02 01:01:23;;;;;;;2.92;2.10;;;;;;;;;;4973720;28;20082;-68
2023/04/02 01:04:01;;;;;;;2.25;1.90;;;;;;;;;;4974103;28;20057;-68
2023/04/02 01:06:30;;;;;;;2.55;2.00;;;;;;;;;;4973890;28;20412;-68
2023/04/02 01:09:32;;;;;;;2.67;1.80;;;;;;;;;;4966549;28;20070;-69
2023/04/02 01:12:13;;;;;;;2.55;2.00;;;;;;;;;;4954545;29;20113;-69
2023/04/02 01:14:50;;;;;;;2.85;1.77;;;;;;;;;;4952431;28;20131;-68
2023/04/02 01:17:29;;;;;;;2.90;2.03;;;;;;;;;;4950998;28;20051;-68
2023/04/02 01:20:46;;;;;;;2.60;1.85;;;;;;;;;;4951159;28;20066;-68
2023/04/02 01:23:18;;;;;;;2.55;1.77;;;;;;;;;;4957263;28;20087;-67
2023/04/02 01:25:51;;;;;;;3.28;2.20;;;;;;;;;;4951171;28;20132;-68
2023/04/02 01:28:22;;;;;;;2.50;1.67;;;;;;;;;;4950740;28;20344;-67
2023/04/02 01:30:52;;;;;;;3.35;1.73;;;;;;;;;;4950727;28;20401;-68
2023/04/02 01:33:21;;;;;;;2.80;2.00;;;;;;;;;;4949888;29;20083;-67
2023/04/02 01:35:55;;;;;;;1.90;1.70;;;;;;;;;;4958262;28;20090;-67
2023/04/02 01:38:27;;;;;;;2.70;1.70;;;;;;;;;;4968363;28;20051;-68
2023/04/02 01:40:59;;;;;;;1.75;1.45;;;;;;;;;;4969163;28;20098;-67
2023/04/02 01:43:31;;;;;;;2.28;1.63;;;;;;;;;;4969005;28;20051;-68
2023/04/02 01:45:59;;;;;;;2.15;1.75;;;;;;;;;;4969296;28;20043;-67
2023/04/02 01:48:29;;;;;;;3.05;2.03;;;;;;;;;;4968473;28;20424;-67
2023/04/02 01:50:59;;;;;;;1.88;1.60;;;;;;;;;;4969259;28;20047;-67
2023/04/02 01:53:28;;;;;;;3.10;1.65;;;;;;;;;;4968526;28;20054;-67
2023/04/02 01:55:58;;;;;;;2.17;1.73;;;;;;;;;;4969239;28;20481;-68
2023/04/02 01:58:26;;;;;;;2.63;1.60;;;;;;;;;;4968298;28;20059;-67
2023/04/02 02:00:58;;;;;;;2.42;2.00;;;;;;;;;;4969189;28;20070;-68
2023/04/02 02:03:26;;;;;;;3.28;1.90;;;;;;;;;;4968508;28;20082;-67
2023/04/02 02:05:53;;;;;;;2.15;1.95;;;;;;;;;;4968677;28;20058;-68
2023/04/02 02:08:31;;;;;;;3.63;2.42;;;;;;;;;;4968229;28;20054;-68
2023/04/02 02:10:59;;;;;;;2.15;1.90;;;;;;;;;;4962745;28;20485;-68
2023/04/02 02:13:25;;;;;;;2.72;1.98;;;;;;;;;;4949476;28;20062;-68
2023/04/02 02:15:52;;;;;;;2.90;1.90;;;;;;;;;;4949894;29;20079;-67
2023/04/02 02:18:23;;;;;;;2.25;1.83;;;;;;;;;;4948987;28;20090;-67
2023/04/02 02:20:51;;;;;;;2.03;1.80;;;;;;;;;;4949820;28;20048;-68
2023/04/02 02:23:19;;;;;;;1.67;1.52;;;;;;;;;;4949251;28;20051;-67
2023/04/02 02:25:46;;;;;;;2.92;2.10;;;;;;;;;;4949049;29;20485;-67
2023/04/02 02:28:16;;;;;;;2.65;1.95;;;;;;;;;;4949064;28;20047;-67
2023/04/02 02:30:46;;;;;;;3.63;1.70;;;;;;;;;;4912352;28;1086788;-67
2023/04/02 02:33:17;;;;;;;3.03;1.48;;;;;;;;;;4950210;28;20413;-68
2023/04/02 02:35:50;;;;;;;2.00;1.70;;;;;;;;;;4948609;28;20051;-68
2023/04/02 02:38:31;;;;;;;2.35;1.60;;;;;;;;;;4949839;29;20137;-67
2023/04/02 02:41:04;;;;;;;2.95;1.50;;;;;;;;;;4949887;28;20055;-67
2023/04/02 02:43:32;;;;;;;2.55;1.90;;;;;;;;;;4950181;28;20063;-67
2023/04/02 02:45:59;;;;;;;2.45;1.73;;;;;;;;;;4949888;28;20134;-67
2023/04/02 02:48:35;;;;;;;3.90;1.80;;;;;;;;;;4949717;28;20478;-68
2023/04/02 02:51:07;;;;;;;2.33;1.90;;;;;;;;;;4949770;28;20138;-68
2023/04/02 02:53:46;;;;;;;2.10;1.67;;;;;;;;;;4949663;28;20089;-68
2023/04/02 02:56:13;;;;;;;2.33;1.70;;;;;;;;;;4949908;28;20055;-67
2023/04/02 02:58:40;;;;;;;1.98;1.30;;;;;;;;;;4949567;28;20082;-68
2023/04/02 03:01:07;;;;;;;1.50;1.33;;;;;;;;;;4949744;28;20057;-67
2023/04/02 03:03:34;;;;;;;1.50;1.40;;;;;;;;;;4950099;29;20504;-67
2023/04/02 03:06:04;;;;;;;1.95;1.40;;;;;;;;;;4948033;28;20047;-67
2023/04/02 03:08:35;;;;;;;1.50;1.38;;;;;;;;;;4949847;29;20047;-67
2023/04/02 03:11:11;;;;;;;1.55;1.40;;;;;;;;;;4949504;29;20238;-68
2023/04/02 03:13:40;;;;;;;1.73;1.38;;;;;;;;;;4949513;28;20086;-68
2023/04/02 03:16:11;;;;;;;2.33;1.33;;;;;;;;;;4949511;28;20432;-68
2023/04/02 03:18:45;;;;;;;1.40;1.30;;;;;;;;;;4949171;28;20512;-67
2023/04/02 03:21:22;;;;;;;1.52;1.30;;;;;;;;;;4949948;28;20494;-68
2023/04/02 03:23:55;;;;;;;1.30;1.20;;;;;;;;;;4949857;28;20101;-68
2023/04/02 03:26:27;;;;;;;2.15;1.40;;;;;;;;;;4949203;28;20128;-68
2023/04/02 03:28:58;;;;;;;2.58;1.45;;;;;;;;;;4949246;28;20055;-67
2023/04/02 03:31:31;;;;;;;1.75;1.45;;;;;;;;;;4949004;28;20562;-68
2023/04/02 03:33:59;;;;;;;;;;;;;;;;;;4949779;28;20089;-68
2023/04/02 03:36:29;;;;;;;1.30;1.10;;;;;;;;;;4949156;28;20305;-68
2023/04/02 03:39:05;;;;;;;1.10;1.00;;;;;;;;;;4947019;28;20105;-68
2023/04/02 03:41:41;;;;;;;1.20;1.10;;;;;;;;;;4948658;28;20174;-68
2023/04/02 03:44:19;;;;;;;1.95;1.17;;;;;;;;;;4949081;29;20100;-68
2023/04/02 03:46:56;;;;;;;1.63;1.30;;;;;;;;;;4949057;28;20062;-67
2023/04/02 03:49:29;;;;;;;1.75;1.38;;;;;;;;;;4949143;28;20087;-68
2023/04/02 03:51:59;;;;;;;;;;;;;;;;;;4949203;28;20043;-66
2023/04/02 03:54:25;;;;;;;1.40;1.30;;;;;;;;;;4949418;28;20367;-68
2023/04/02 03:56:54;;;;;;;1.40;1.30;;;;;;;;;;4949172;28;20138;-67
2023/04/02 03:59:28;;;;;;;2.60;1.40;;;;;;;;;;4948803;29;20464;-67
2023/04/02 04:01:59;;;;;;;1.40;1.30;;;;;;;;;;4949097;28;20473;-67
2023/04/02 04:04:28;;;;;;;1.50;1.40;;;;;;;;;;4947519;28;20093;-67
2023/04/02 04:06:56;;;;;;;1.73;1.20;;;;;;;;;;4948740;28;20101;-68
2023/04/02 04:09:28;;;;;;;1.40;1.30;;;;;;;;;;4948776;28;20047;-68
2023/04/02 04:12:08;;;;;;;1.40;1.30;;;;;;;;;;4949091;29;20055;-68
2023/04/02 04:14:37;;;;;;;1.77;1.50;;;;;;;;;;4948389;28;20280;-68
2023/04/02 04:17:14;;;;;;;2.20;1.45;;;;;;;;;;4948287;29;20143;-67
2023/04/02 04:19:45;;;;;;;2.00;1.70;;;;;;;;;;4948718;28;20047;-68
2023/04/02 04:22:17;;;;;;;1.70;1.50;;;;;;;;;;4948984;28;20086;-67
2023/04/02 04:24:45;;;;;;;1.83;1.60;;;;;;;;;;4948550;28;20493;-67
2023/04/02 04:27:21;;;;;;;1.83;1.60;;;;;;;;;;4948718;28;20047;-68
2023/04/02 04:32:33;;;;;;;2.15;1.55;;;;;;;;;;5004536;28;20129;-67
2023/04/02 04:35:06;;;;;;;1.92;1.60;;;;;;;;;;5006650;28;20046;-68
2023/04/02 04:37:37;;;;;;;2.05;1.65;;;;;;;;;;5007601;28;20042;-68
2023/04/02 04:40:10;;;;;;;1.80;1.70;;;;;;;;;;5007213;28;20064;-70
2023/04/02 04:42:42;;;;;;;1.50;1.40;;;;;;;;;;5007494;28;20078;-70
2023/04/02 04:45:23;;;;;;;2.08;1.60;;;;;;;;;;5006917;28;20053;-69
2023/04/02 04:47:54;;;;;;;1.77;1.52;;;;;;;;;;5007459;28;20046;-69
2023/04/02 04:50:28;;;;;;;2.60;1.33;;;;;;;;;;5009389;28;20050;-68
2023/04/02 04:52:55;;;;;;;1.88;1.70;;;;;;;;;;5010438;28;20046;-69
2023/04/02 04:55:27;;;;;;;2.20;1.50;;;;;;;;;;5010388;28;20499;-69
2023/04/02 04:58:00;;;;;;;1.60;1.50;;;;;;;;;;5010465;28;20047;-69
2023/04/02 05:00:30;;;;;;;;;;;;;;;;;;5010479;28;20057;-69
2023/04/02 05:03:03;;;;;;;2.10;1.88;;;;;;;;;;5010858;28;19921;-68
2023/04/02 05:05:33;;;;;;;1.75;1.58;;;;;;;;;;5009954;28;20050;-70
2023/04/02 05:08:06;;;;;;;1.98;1.77;;;;;;;;;;5010051;28;20056;-69
2023/04/02 05:10:36;;;;;;;;;;;;;;;;;;5010799;28;20050;-70
2023/04/02 05:13:09;;;;;;;3.75;1.70;;;;;;;;;;5010402;28;20290;-70
2023/04/02 05:15:41;;;;;;;2.00;1.80;;;;;;;;;;5009971;28;20129;-69
2023/04/02 05:18:22;;;;;;;2.30;2.00;;;;;;;;;;5010117;28;20054;-69
2023/04/02 05:20:53;;;;;;;1.77;1.67;;;;;;;;;;5010380;28;20434;-70
2023/04/02 05:23:25;;;;;;;2.83;2.20;;;;;;;;;;5010037;28;20050;-70
2023/04/02 05:25:54;;;;;;;4.25;2.13;;;;;;;;;;5010240;28;20545;-69
2023/04/02 05:28:29;;;;;;;3.40;2.38;;;;;;;;;;5010327;28;20515;-69
2023/04/02 05:31:03;;;;;;;2.42;2.22;;;;;;;;;;5009948;28;20053;-68
2023/04/02 05:33:30;;;;;;;4.82;2.60;;;;;;;;;;5010461;28;20094;-71
2023/04/02 05:36:00;;;;;;;3.75;2.10;;;;;;;;;;5009637;28;20056;-69
2023/04/02 05:38:29;;;;;;;3.53;2.22;;;;;;;;;;5010158;28;20046;-69
2023/04/02 05:41:01;;;;;;;5.18;2.30;;;;;;;;;;5010021;28;20533;-69
2023/04/02 05:43:33;;;;;;;2.23;2.00;;;;;;;;;;5009951;28;20563;-70
2023/04/02 05:46:06;;;;;;;2.60;2.40;;;;;;;;;;5009921;28;20056;-70
2023/04/02 05:48:38;;;;;;;2.20;2.00;;;;;;;;;;5009638;28;20042;-70
2023/04/02 05:51:09;;;;;;;1.95;1.75;;;;;;;;;;5009946;28;20417;-70
2023/04/02 05:53:40;;;;;;;2.15;1.60;;;;;;;;;;5009483;28;20114;-70
2023/04/02 05:56:14;;;;;;;2.38;1.92;;;;;;;;;;5009877;28;20507;-69
2023/04/02 05:58:45;;;;;;;3.42;1.77;;;;;;;;;;5009423;28;20046;-69
2023/04/02 06:01:21;;;;;;;2.05;1.75;;;;;;;;;;5009030;28;20142;-70
2023/04/02 06:03:55;;;;;;;3.42;2.03;;;;;;;;;;5009380;28;20414;-69
2023/04/02 06:06:28;;;;;;;2.40;2.00;;;;;;;;;;5009794;28;20483;-70
2023/04/02 06:09:00;;;;;;;2.60;2.03;;;;;;;;;;5008585;28;20056;-67
2023/04/02 06:11:30;;;;;;;3.15;1.95;;;;;;;;;;5009335;28;20095;-67
2023/04/02 06:13:59;;;;;;;1.40;1.30;;;;;;;;;;5009083;28;20399;-69
2023/04/02 06:16:29;;;;;;;2.03;1.42;;;;;;;;;;5009194;28;20073;-68
2023/04/02 06:18:56;;;;;;;1.40;1.30;;;;;;;;;;5009204;28;20139;-68
2023/04/02 06:21:23;;;;;;;1.83;1.50;;;;;;;;;;5009371;28;20046;-69
2023/04/02 06:23:53;;;;;;;2.38;1.73;;;;;;;;;;5009078;28;20060;-67
2023/04/02 06:26:31;;;;;;;3.15;1.77;;;;;;;;;;5009541;28;20038;-68
2023/04/02 06:29:04;;;;;;;1.75;1.50;;;;;;;;;;5008709;28;20107;-68
2023/04/02 06:31:38;;;;;;;1.85;1.52;;;;;;;;;;5009146;28;20057;-69
2023/04/02 06:34:06;;;;;;;2.83;1.85;;;;;;;;;;5008751;28;20045;-70
2023/04/02 06:36:33;;;;;;;2.53;1.70;;;;;;;;;;5008917;28;20046;-69
2023/04/02 06:39:06;;;;;;;3.72;2.90;;;;;;;;;;5009260;28;20053;-69
2023/04/02 06:41:33;;;;;;;3.15;2.00;;;;;;;;;;5009144;28;20054;-69
2023/04/02 06:44:04;;;;;;;6.45;3.35;;;;;;;;;;5008472;28;20064;-70
2023/04/02 06:46:35;;;;;;;1.98;1.80;;;;;;;;;;5008872;28;20106;-69
2023/04/02 06:49:13;;;;;;;2.90;1.80;;;;;;;;;;5008760;28;20050;-69
2023/04/02 06:51:42;;;;;;;2.40;1.83;;;;;;;;;;5009005;28;20056;-68
2023/04/02 06:54:14;;;;;;;1.67;1.58;;;;;;;;;;5008463;28;20398;-67
2023/04/02 06:56:43;;;;;;;2.30;1.27;;;;;;;;;;5008488;28;20050;-67
2023/04/02 06:59:11;;;;;;;1.50;1.40;;;;;;;;;;5008341;28;20283;-69
2023/04/02 07:01:43;;;;;;;1.50;1.35;;;;;;;;;;5008446;28;20052;-68
2023/04/02 07:04:10;;;;;;;1.50;1.20;;;;;;;;;;5009044;28;20510;-69
2023/04/02 07:06:36;;;;;;;3.10;2.00;;;;;;;;;;5007871;28;20052;-68
2023/04/02 07:09:04;;;;;;;3.85;3.08;;;;;;;;;;5008623;28;20041;-69
2023/04/02 07:11:30;;;;;;;1.95;1.75;;;;;;;;;;5007977;28;20137;-69
2023/04/02 07:13:57;;;;;;;4.20;3.80;;;;;;;;;;5007022;28;20048;-69
2023/04/02 07:16:27;;;;;;;1.50;1.35;;;;;;;;;;5008235;28;20503;-68
2023/04/02 07:18:54;;;;;;;1.77;1.02;;;;;;;;;;5008212;28;20137;-69
2023/04/02 07:21:21;;;;;;;1.20;1.10;;;;;;;;;;5008347;28;20145;-69
2023/04/02 07:23:48;;;;;;;0.93;0.82;;;;;;;;;;5008461;28;20487;-69
2023/04/02 07:26:16;;;;;;;1.05;0.93;;;;;;;;;;5007892;28;20046;-68
2023/04/02 07:28:43;;;;;;;0.90;0.80;;;;;;;;;;5008589;28;20049;-69
2023/04/02 07:31:16;;;;;;;1.70;0.90;;;;;;;;;;5007808;28;20050;-67
2023/04/02 07:33:44;;;;;;;;;;;;;;;;;;5008806;28;20479;-69
2023/04/02 07:36:14;;;;;;;2.33;0.80;;;;;;;;;;5008008;28;20370;-69
2023/04/02 07:38:41;;;;;;;0.88;0.85;;;;;;;;;;5008722;28;20133;-68
2023/04/02 07:41:07;;;;;;;0.70;0.70;;;;;;;;;;5008085;28;20531;-70
2023/04/02 07:43:34;;;;;;;0.65;0.65;;;;;;;;;;5008309;28;20453;-68
2023/04/02 07:46:01;;;;;;;2.58;1.38;;;;;;;;;;5007894;28;20088;-69
2023/04/02 07:48:28;;;;;;;11.25;9.50;;;;;;;;;;5007877;28;20046;-68
2023/04/02 07:50:56;;;;;;;2.20;2.00;;;;;;;;;;5008068;28;20042;-69
2023/04/02 07:53:29;;;;;;;1.85;1.75;;;;;;;;;;5007736;28;20046;-69
2023/04/02 07:55:56;;;;;;;1.02;1.00;;;;;;;;;;5008048;28;20049;-69
2023/04/02 07:58:23;;;;;;;0.93;0.93;;;;;;;;;;5007736;28;20050;-69
2023/04/02 08:00:49;;;;;;;0.93;0.90;;;;;;;;;;5008001;28;20042;-69
2023/04/02 08:03:16;;;;;;;1.20;1.10;;;;;;;;;;5007829;28;20053;-68
2023/04/02 08:05:43;;;;;;;1.20;1.10;;;;;;;;;;5007756;28;20405;-68
2023/04/02 08:08:11;;;;;;;1.48;1.00;;;;;;;;;;5006923;28;20058;-70
2023/04/02 08:10:37;;;;;;;1.00;0.90;;;;;;;;;;5007793;28;20046;-69
2023/04/02 08:13:04;;;;;;;1.00;1.00;;;;;;;;;;5006964;28;20046;-68
2023/04/02 08:15:30;;;;;;;1.17;1.00;;;;;;;;;;5007827;28;20061;-70
2023/04/02 08:17:57;;;;;;;3.53;1.35;;;;;;;;;;5007558;28;20058;-68
2023/04/02 08:20:24;;;;;;;1.17;0.98;;;;;;;;;;5007767;28;20057;-69
2023/04/02 08:22:50;;;;;;;1.58;1.27;;;;;;;;;;5007392;28;20509;-69
2023/04/02 08:25:18;;;;;;;1.05;0.88;;;;;;;;;;5009681;28;20060;-69
2023/04/02 08:27:47;;;;;;;1.00;0.90;;;;;;;;;;5011036;28;20315;-70
2023/04/02 08:30:16;;;;;;;0.90;0.90;;;;;;;;;;5010744;28;20380;-67
2023/04/02 08:32:43;;;;;;;1.30;1.00;;;;;;;;;;5011246;28;20052;-68
2023/04/02 08:35:13;;;;;;;1.73;1.20;;;;;;;;;;5010662;28;20510;-68
2023/04/02 08:37:40;;;;;;;1.00;0.90;;;;;;;;;;5010804;28;20042;-67
2023/04/02 08:40:16;;;;;;;1.00;0.90;;;;;;;;;;5010714;28;20085;-68
2023/04/02 08:42:50;;;;;;;0.90;0.90;;;;;;;;;;5010767;28;20045;-69
2023/04/02 08:45:21;;;;;;;1.20;1.10;;;;;;;;;;5010690;28;20115;-69
2023/04/02 08:47:50;;;;;;;0.90;0.90;;;;;;;;;;5011031;28;20337;-69
2023/04/02 08:50:26;;;;;;;1.13;0.75;;;;;;;;;;5010443;28;20096;-69
2023/04/02 08:52:53;;;;;;;0.60;0.60;;;;;;;;;;5011142;28;20052;-69
2023/04/02 08:55:31;;;;;;;1.30;1.20;;;;;;;;;;5010569;28;20403;-69
2023/04/02 08:58:06;;;;;;;1.13;1.02;;;;;;;;;;5010718;28;20050;-69
2023/04/02 09:00:37;;;;;;;0.80;0.80;;;;;;;;;;5010566;28;20129;-69
2023/04/02 09:03:09;;;;;;;0.70;0.70;;;;;;;;;;5010685;28;20303;-69
2023/04/02 09:05:39;;;;;;;1.00;0.90;;;;;;;;;;5010072;28;20084;-68
2023/04/02 09:08:17;;;;;;;0.60;0.60;;;;;;;;;;5009977;28;20042;-69
2023/04/02 09:10:50;;;;;;;0.55;0.55;;;;;;;;;;5010345;28;20050;-69
2023/04/02 09:13:23;;;;;;;0.60;0.60;;;;;;;;;;5010540;28;20479;-69
2023/04/02 09:15:54;;;;;;;0.60;0.60;;;;;;;;;;5010164;28;20406;-69
2023/04/02 09:18:21;;;;;;;0.60;0.60;;;;;;;;;;5010039;28;20053;-67
2023/04/02 09:20:48;;;;;;;0.77;0.60;;;;;;;;;;5010095;28;20053;-68
2023/04/02 09:23:18;;;;;;;0.52;0.52;;;;;;;;;;5010125;28;20054;-69
2023/04/02 09:25:48;;;;;;;0.60;0.60;;;;;;;;;;5009996;28;20042;-69
2023/04/02 09:28:15;;;;;;;1.08;0.50;;;;;;;;;;5010192;28;20062;-69
2023/04/02 09:30:57;;;;;;;0.60;0.60;;;;;;;;;;5010283;28;20431;-69
2023/04/02 09:33:43;;;;;;;0.82;0.68;;;;;;;;;;5010097;28;20045;-68
2023/04/02 09:36:19;;;;;;;0.70;0.70;;;;;;;;;;5008362;28;20167;-68
2023/04/02 09:38:59;;;;;;;0.75;0.60;;;;;;;;;;5010178;28;20472;-68
2023/04/02 09:41:28;;;;;;;0.60;0.60;;;;;;;;;;5009454;28;20058;-67
2023/04/02 09:44:20;;;;;;;0.70;0.70;;;;;;;;;;5009808;28;20054;-70
2023/04/02 09:46:51;;;;;;;0.60;0.60;;;;;;;;;;5009737;28;20057;-69
2023/04/02 09:49:21;;;;;;;0.60;0.60;;;;;;;;;;5009648;28;20046;-69
2023/04/02 09:52:07;;;;;;;0.50;0.50;;;;;;;;;;5009714;28;20403;-68
2023/04/02 09:54:40;;;;;;;0.70;0.70;;;;;;;;;;5009999;28;20050;-69
2023/04/02 09:57:17;;;;;;;1.70;0.80;;;;;;;;;;5010004;28;20050;-69
2023/04/02 09:59:43;;;;;;;0.50;0.50;;;;;;;;;;5009802;28;20238;-69
2023/04/02 10:02:24;;;;;;;4.90;1.95;;;;;;;;;;5009473;28;20137;-68
2023/04/02 10:04:51;;;;;;;0.50;0.50;;;;;;;;;;5009455;28;20140;-69
2023/04/02 10:07:33;;;;;;;0.65;0.65;;;;;;;;;;5009326;28;20045;-68
2023/04/02 10:10:02;;;;;;;0.60;0.60;;;;;;;;;;5009804;28;20511;-69
2023/04/02 10:12:33;;;;;;;1.15;0.60;;;;;;;;;;5009503;28;20050;-69
2023/04/02 10:15:01;;;;;;;1.25;0.70;;;;;;;;;;5009308;28;20046;-69
2023/04/02 10:17:31;;;;;;;1.10;0.73;;;;;;;;;;5009367;28;20050;-69
2023/04/02 10:20:05;;;;;;;1.42;0.80;;;;;;;;;;5009305;28;20046;-69
2023/04/02 10:22:32;;;;;;;0.73;0.70;;;;;;;;;;5009278;28;20335;-70
2023/04/02 10:24:58;;;;;;;1.15;0.95;;;;;;;;;;5009401;28;20513;-69
2023/04/02 10:27:36;;;;;;;0.60;0.60;;;;;;;;;;5009266;28;20042;-68
2023/04/02 10:32:48;;;;;;;3.83;1.60;;;;;;;;;;5006783;28;20054;-72
2023/04/02 10:35:28;;;;;;;0.60;0.60;;;;;;;;;;5008846;28;20056;-72
2023/04/02 10:38:09;;;;;;;0.60;0.60;;;;;;;;;;4996220;28;20100;-70
2023/04/02 10:40:38;;;;;;;0.68;0.68;;;;;;;;;;4989116;28;20054;-69
2023/04/02 10:43:39;;;;;;;0.68;0.60;;;;;;;;;;4989658;28;20046;-72
2023/04/02 10:46:10;;;;;;;0.60;0.60;;;;;;;;;;4972609;28;20058;-71
2023/04/02 10:48:44;;;;;;;0.60;0.60;;;;;;;;;;4988623;28;20050;-71
2023/04/02 10:51:25;;;;;;;0.55;0.55;;;;;;;;;;4989261;28;20046;-70
2023/04/02 10:53:58;;;;;;;0.60;0.60;;;;;;;;;;4989331;28;20324;-71
2023/04/02 10:56:26;;;;;;;0.65;0.63;;;;;;;;;;4989113;28;20051;-70
2023/04/02 10:58:58;;;;;;;0.50;0.50;;;;;;;;;;4988868;28;20042;-70
2023/04/02 11:01:28;;;;;;;1.67;0.60;;;;;;;;;;4988879;28;20046;-70
2023/04/02 11:03:59;;;;;;;1.10;0.70;;;;;;;;;;4990004;28;20054;-70
2023/04/02 11:06:28;;;;;;;0.60;0.60;;;;;;;;;;4989094;28;20058;-70
2023/04/02 11:08:59;;;;;;;0.95;0.60;;;;;;;;;;4988916;28;20107;-71
2023/04/02 11:11:30;;;;;;;0.57;0.57;;;;;;;;;;4992332;28;20106;-70
2023/04/02 11:13:59;;;;;;;0.52;0.52;;;;;;;;;;5008150;28;20487;-70
2023/04/02 11:16:27;;;;;;;0.52;0.52;;;;;;;;;;5008084;28;20095;-71
2023/04/02 11:19:22;;;;;;;0.40;0.40;;;;;;;;;;5008306;28;20480;-70
2023/04/02 11:21:51;;;;;;;0.45;0.45;;;;;;;;;;5008024;28;20089;-71
2023/04/02 11:24:43;;;;;;;0.50;0.50;;;;;;;;;;5008143;28;20132;-70
2023/04/02 11:27:24;;;;;;;0.50;0.50;;;;;;;;;;4997987;28;20124;-71
2023/04/02 11:29:53;;;;;;;0.98;0.88;;;;;;;;;;5008328;28;20080;-70
2023/04/02 11:32:33;;;;;;;0.82;0.70;;;;;;;;;;5007711;28;20095;-70
2023/04/02 11:35:24;;;;;;;0.47;0.47;;;;;;;;;;5008164;28;20050;-72
2023/04/02 11:37:51;;;;;;;0.50;0.50;;;;;;;;;;5006595;28;20050;-70
2023/04/02 11:40:54;;;;;;;0.45;0.45;;;;;;;;;;5008373;28;20442;-70
2023/04/02 11:43:47;;;;;;;0.40;0.40;;;;;;;;;;5008042;28;20069;-73
2023/04/02 11:46:40;;;;;;;1.10;0.52;;;;;;;;;;5007647;28;20540;-70
2023/04/02 11:49:40;;;;;;;0.50;0.50;;;;;;;;;;5007205;28;20137;-69
2023/04/02 11:52:27;;;;;;;0.40;0.40;;;;;;;;;;4966292;28;20051;-69
2023/04/02 11:55:29;;;;;;;0.50;0.50;;;;;;;;;;5003933;28;20045;-70
2023/04/02 11:58:22;;;;;;;0.52;0.45;;;;;;;;;;5005657;28;20085;-68
2023/04/02 12:01:14;;;;;;;0.85;0.55;;;;;;;;;;5007504;28;20485;-68
2023/04/02 12:04:01;;;;;;;1.30;1.20;;;;;;;;;;5007275;28;20439;-68
2023/04/02 12:06:38;;;;;;;0.70;0.60;;;;;;;;;;5006283;28;20046;-72
2023/04/02 12:09:18;;;;;;;0.50;0.50;;;;;;;;;;4988466;28;20057;-68
2023/04/02 12:11:46;;;;;;;0.65;0.65;;;;;;;;;;4988620;28;20056;-69
2023/04/02 12:14:34;;;;;;;0.50;0.50;;;;;;;;;;4987892;28;20054;-69
2023/04/02 12:17:02;;;;;;;0.57;0.57;;;;;;;;;;4988354;28;20146;-69
2023/04/02 12:19:31;;;;;;;0.80;0.80;;;;;;;;;;4988396;28;20050;-69
2023/04/02 12:21:59;;;;;;;0.98;0.80;;;;;;;;;;4988536;28;20453;-69
2023/04/02 12:24:30;;;;;;;0.75;0.70;;;;;;;;;;4987719;28;20561;-70
2023/04/02 12:27:14;;;;;;;0.80;0.70;;;;;;;;;;4988590;28;20513;-69
2023/04/02 12:29:41;;;;;;;0.60;0.60;;;;;;;;;;4987569;28;20061;-69
2023/04/02 12:32:20;;;;;;;0.70;0.70;;;;;;;;;;4988247;28;20046;-69
2023/04/02 12:34:47;;;;;;;0.55;0.52;;;;;;;;;;4987630;28;20042;-71
2023/04/02 12:37:21;;;;;;;0.95;0.63;;;;;;;;;;4990107;28;20154;-69
2023/04/02 12:39:55;;;;;;;0.60;0.60;;;;;;;;;;5007139;28;20054;-70
2023/04/02 12:42:30;;;;;;;0.65;0.65;;;;;;;;;;5007818;28;20070;-69
2023/04/02 12:44:57;;;;;;;2.10;0.70;;;;;;;;;;5007127;28;20046;-69
2023/04/02 12:47:25;;;;;;;0.73;0.73;;;;;;;;;;5007493;28;20046;-70
2023/04/02 12:49:52;;;;;;;0.73;0.60;;;;;;;;;;5007266;28;20046;-69
2023/04/02 12:52:22;;;;;;;0.60;0.60;;;;;;;;;;5007731;28;20100;-69
2023/04/02 12:54:51;;;;;;;1.42;0.80;;;;;;;;;;5007263;28;20633;-69
2023/04/02 12:57:35;;;;;;;0.68;0.68;;;;;;;;;;5007411;28;20073;-71
2023/04/02 13:00:19;;;;;;;0.93;0.70;;;;;;;;;;5006908;28;20137;-69
2023/04/02 13:02:49;;;;;;;0.63;0.63;;;;;;;;;;5007309;28;20057;-69
2023/04/02 13:05:35;;;;;;;0.70;0.70;;;;;;;;;;5005710;28;20506;-70
2023/04/02 13:08:02;;;;;;;0.60;0.60;;;;;;;;;;5007290;28;20060;-72
2023/04/02 13:10:30;;;;;;;0.73;0.60;;;;;;;;;;5008168;28;20110;-69
2023/04/02 13:13:00;;;;;;;0.70;0.70;;;;;;;;;;5010507;28;20152;-69
2023/04/02 13:15:30;;;;;;;0.85;0.68;;;;;;;;;;5010602;28;20141;-69
2023/04/02 13:18:06;;;;;;;0.65;0.65;;;;;;;;;;5010528;28;20137;-69
2023/04/02 13:20:35;;;;;;;0.80;0.80;;;;;;;;;;5010095;28;20050;-69
2023/04/02 13:23:22;;;;;;;0.70;0.70;;;;;;;;;;5010458;28;20079;-70
2023/04/02 13:25:50;;;;;;;0.75;0.75;;;;;;;;;;5010246;28;20147;-70
2023/04/02 13:28:18;;;;;;;1.00;0.95;;;;;;;;;;5010129;28;20487;-69
2023/04/02 13:30:45;;;;;;;0.93;0.93;;;;;;;;;;5010125;28;20530;-68
2023/04/02 13:33:12;;;;;;;1.00;0.90;;;;;;;;;;5010400;28;20061;-72
2023/04/02 13:35:39;;;;;;;0.88;0.88;;;;;;;;;;5008638;28;20046;-70
2023/04/02 13:38:06;;;;;;;1.08;0.98;;;;;;;;;;5009594;28;20042;-69
2023/04/02 13:40:34;;;;;;;0.82;0.82;;;;;;;;;;5010291;28;20100;-74
2023/04/02 13:43:01;;;;;;;1.25;1.10;;;;;;;;;;5009549;28;20062;-69
2023/04/02 13:45:32;;;;;;;1.20;1.10;;;;;;;;;;5009943;28;20061;-68
2023/04/02 13:48:00;;;;;;;1.45;1.30;;;;;;;;;;5009584;28;20054;-68
2023/04/02 13:50:29;;;;;;;1.30;1.20;;;;;;;;;;5009900;28;20054;-68
2023/04/02 13:52:57;;;;;;;1.40;1.10;;;;;;;;;;5010011;28;20049;-70
2023/04/02 13:55:28;;;;;;;1.48;1.15;;;;;;;;;;5009912;28;20122;-67
2023/04/02 13:57:55;;;;;;;1.30;1.20;;;;;;;;;;5009562;28;20129;-67
2023/04/02 14:00:22;;;;;;;1.20;1.10;;;;;;;;;;5009628;28;20057;-68
2023/04/02 14:02:53;;;;;;;1.50;1.40;;;;;;;;;;5009662;28;20129;-67
2023/04/02 14:05:32;;;;;;;1.50;1.40;;;;;;;;;;5009927;28;20141;-68
2023/04/02 14:08:08;;;;;;;1.40;1.30;;;;;;;;;;5008093;28;20081;-68
2023/04/02 14:10:51;;;;;;;1.40;1.30;;;;;;;;;;5009784;28;20046;-68
2023/04/02 14:13:36;;;;;;;1.65;1.50;;;;;;;;;;5009636;28;20515;-71
2023/04/02 14:16:18;;;;;;;1.40;1.30;;;;;;;;;;5009809;28;20046;-69
2023/04/02 14:19:00;;;;;;;1.40;1.30;;;;;;;;;;5009121;28;20165;-70
2023/04/02 14:21:34;;;;;;;1.30;1.20;;;;;;;;;;5009785;28;20072;-69
2023/04/02 14:24:16;;;;;;;1.77;1.60;;;;;;;;;;5009416;28;20046;-69
2023/04/02 14:26:54;;;;;;;1.48;1.38;;;;;;;;;;5009742;28;20571;-69
2023/04/02 14:29:26;;;;;;;1.70;1.60;;;;;;;;;;5009219;28;20130;-69
2023/04/02 14:32:00;;;;;;;1.75;1.35;;;;;;;;;;5009059;28;20053;-69
2023/04/02 14:34:33;;;;;;;1.45;1.35;;;;;;;;;;5008932;28;20483;-70
2023/04/02 14:37:09;;;;;;;1.30;1.20;;;;;;;;;;5008806;28;20050;-68
2023/04/02 14:39:45;;;;;;;1.50;1.40;;;;;;;;;;4997129;28;20388;-70
2023/04/02 14:42:16;;;;;;;1.40;1.30;;;;;;;;;;4989397;28;20099;-71
2023/04/02 14:44:48;;;;;;;1.58;1.48;;;;;;;;;;4989415;28;20495;-70
2023/04/02 14:47:17;;;;;;;;;;;;;;;;;;4990234;28;20050;-69
2023/04/02 14:49:53;;;;;;;1.52;1.42;;;;;;;;;;4989059;28;19922;-70
2023/04/02 14:52:23;;;;;;;1.95;1.58;;;;;;;;;;4989410;28;20059;-70
2023/04/02 14:54:54;;;;;;;1.70;1.60;;;;;;;;;;4989072;28;20093;-70
2023/04/02 14:57:23;;;;;;;1.48;1.17;;;;;;;;;;4989628;28;20123;-70
2023/04/02 15:00:00;;;;;;;1.52;1.42;;;;;;;;;;4989171;28;20108;-69
2023/04/02 15:02:36;;;;;;;1.63;1.50;;;;;;;;;;4989391;28;20050;-69
2023/04/02 15:05:11;;;;;;;1.85;1.70;;;;;;;;;;4989007;28;20054;-69
2023/04/02 15:07:41;;;;;;;1.75;1.65;;;;;;;;;;5000446;28;20088;-69
2023/04/02 15:10:17;;;;;;;2.05;1.85;;;;;;;;;;5008687;28;20099;-69
2023/04/02 15:12:46;;;;;;;2.10;1.90;;;;;;;;;;5008178;28;20235;-70
2023/04/02 15:15:20;;;;;;;2.50;1.73;;;;;;;;;;5008501;28;20483;-69
2023/04/02 15:17:47;;;;;;;2.03;1.50;;;;;;;;;;5007901;28;20081;-69
2023/04/02 15:20:17;;;;;;;1.42;1.33;;;;;;;;;;5008254;28;20050;-72
2023/04/02 15:22:56;;;;;;;1.60;1.50;;;;;;;;;;5008516;28;20078;-69
2023/04/02 15:25:30;;;;;;;2.00;1.83;;;;;;;;;;5008262;28;20045;-70